sensor_id;sensor_type;location;lat;lon;timestamp;temperature;humidity
10883;DHT22;5494;51.796;10.952;2023-04-01T00:00:52;10.20;99.90
10883;DHT22;5494;51.796;10.952;2023-04-01T00:03:21;10.20;99.90
10883;DHT22;5494;51.796;10.952;2023-04-01T00:05:51;10.20;99.90
10883;DHT22;5494;51.796;10.952;2023-04-01T00:08:19;10.20;99.90
10883;DHT22;5494;51.796;10.952;2023-04-01T00:10:47;10.20;99.90
10883;DHT22;5494;51.796;10.952;2023-04-01T00:13:17;10.10;99.90
10883;DHT22;5494;51.796;10.952;2023-04-01T00:15:45;10.10;99.90
10883;DHT22;5494;51.796;10.952;2023-04-01T00:18:13;10.10;99.90
10883;DHT22;5494;51.796;10.952;2023-04-01T00:20:44;10.10;99.90
10883;DHT22;5494;51.796;10.952;2023-04-01T00:23:12;10.10;99.90
10883;DHT22;5494;51.796;10.952;2023-04-01T00:25:41;10.20;99.90
10883;DHT22;5494;51.796;10.952;2023-04-01T00:28:09;10.20;99.90
10883;DHT22;5494;51.796;10.952;2023-04-01T00:30:39;10.40;99.90
10883;DHT22;5494;51.796;10.952;2023-04-01T00:33:07;10.40;99.90
10883;DHT22;5494;51.796;10.952;2023-04-01T00:35:35;10.40;99.90
10883;DHT22;5494;51.796;10.952;2023-04-01T00:38:04;10.30;99.90
10883;DHT22;5494;51.796;10.952;2023-04-01T00:40:35;10.30;99.90
10883;DHT22;5494;51.796;10.952;2023-04-01T00:43:11;10.30;99.90
10883;DHT22;5494;51.796;10.952;2023-04-01T00:45:43;10.30;99.90
10883;DHT22;5494;51.796;10.952;2023-04-01T00:48:16;10.20;99.90
10883;DHT22;5494;51.796;10.952;2023-04-01T00:50:49;10.10;99.90
10883;DHT22;5494;51.796;10.952;2023-04-01T00:53:22;10.10;99.90
10883;DHT22;5494;51.796;10.952;2023-04-01T00:55:57;10.10;99.90
10883;DHT22;5494;51.796;10.952;2023-04-01T00:58:31;10.10;99.90
10883;DHT22;5494;51.796;10.952;2023-04-01T01:01:05;10.10;99.90
10883;DHT22;5494;51.796;10.952;2023-04-01T01:03:35;10.10;99.90
10883;DHT22;5494;51.796;10.952;2023-04-01T01:06:09;10.10;99.90
10883;DHT22;5494;51.796;10.952;2023-04-01T01:09:02;10.10;99.90
10883;DHT22;5494;51.796;10.952;2023-04-01T01:11:42;10.20;99.90
10883;DHT22;5494;51.796;10.952;2023-04-01T01:14:26;10.30;99.90
10883;DHT22;5494;51.796;10.952;2023-04-01T01:17:12;10.30;99.90
10883;DHT22;5494;51.796;10.952;2023-04-01T01:20:12;10.20;99.90
10883;DHT22;5494;51.796;10.952;2023-04-01T01:23:08;10.20;99.90
10883;DHT22;5494;51.796;10.952;2023-04-01T01:26:14;10.10;99.90
10883;DHT22;5494;51.796;10.952;2023-04-01T01:29:11;10.20;99.90
10883;DHT22;5494;51.796;10.952;2023-04-01T01:31:58;10.30;99.90
10883;DHT22;5494;51.796;10.952;2023-04-01T01:34:35;11.10;99.90
10883;DHT22;5494;51.796;10.952;2023-04-01T01:37:12;10.20;99.90
10883;DHT22;5494;51.796;10.952;2023-04-01T01:39:43;10.10;99.90
10883;DHT22;5494;51.796;10.952;2023-04-01T01:42:18;10.10;99.90
10883;DHT22;5494;51.796;10.952;2023-04-01T01:44:49;10.10;99.90
10883;DHT22;5494;51.796;10.952;2023-04-01T01:47:21;10.00;99.90
10883;DHT22;5494;51.796;10.952;2023-04-01T01:49:51;10.10;99.90
10883;DHT22;5494;51.796;10.952;2023-04-01T01:52:23;10.20;99.90
10883;DHT22;5494;51.796;10.952;2023-04-01T01:54:54;10.10;99.90
10883;DHT22;5494;51.796;10.952;2023-04-01T01:57:29;10.00;99.90
10883;DHT22;5494;51.796;10.952;2023-04-01T02:00:06;10.00;99.90
10883;DHT22;5494;51.796;10.952;2023-04-01T02:02:42;10.00;99.90
10883;DHT22;5494;51.796;10.952;2023-04-01T02:05:17;10.10;99.90
10883;DHT22;5494;51.796;10.952;2023-04-01T02:07:52;10.10;99.90
10883;DHT22;5494;51.796;10.952;2023-04-01T02:10:31;10.10;99.90
10883;DHT22;5494;51.796;10.952;2023-04-01T02:13:09;10.10;99.90
10883;DHT22;5494;51.796;10.952;2023-04-01T02:15:46;10.10;99.90
10883;DHT22;5494;51.796;10.952;2023-04-01T02:18:17;10.10;99.90
10883;DHT22;5494;51.796;10.952;2023-04-01T02:20:47;10.10;99.90
10883;DHT22;5494;51.796;10.952;2023-04-01T02:23:18;10.00;99.90
10883;DHT22;5494;51.796;10.952;2023-04-01T02:25:47;10.00;99.90
10883;DHT22;5494;51.796;10.952;2023-04-01T02:28:17;10.00;99.90
10883;DHT22;5494;51.796;10.952;2023-04-01T02:30:48;10.00;99.90
10883;DHT22;5494;51.796;10.952;2023-04-01T02:33:19;10.10;99.90
10883;DHT22;5494;51.796;10.952;2023-04-01T02:35:49;10.10;99.90
10883;DHT22;5494;51.796;10.952;2023-04-01T02:38:19;10.00;99.90
10883;DHT22;5494;51.796;10.952;2023-04-01T02:40:50;10.00;99.90
10883;DHT22;5494;51.796;10.952;2023-04-01T02:43:19;10.00;99.90
10883;DHT22;5494;51.796;10.952;2023-04-01T02:45:47;9.90;99.90
10883;DHT22;5494;51.796;10.952;2023-04-01T02:48:15;9.80;99.90
10883;DHT22;5494;51.796;10.952;2023-04-01T02:50:43;9.80;99.90
10883;DHT22;5494;51.796;10.952;2023-04-01T02:53:11;9.80;99.90
10883;DHT22;5494;51.796;10.952;2023-04-01T02:55:41;9.90;99.90
10883;DHT22;5494;51.796;10.952;2023-04-01T02:58:09;9.80;99.90
10883;DHT22;5494;51.796;10.952;2023-04-01T03:00:37;9.90;99.90
10883;DHT22;5494;51.796;10.952;2023-04-01T03:03:05;9.90;99.90
10883;DHT22;5494;51.796;10.952;2023-04-01T03:05:35;9.90;99.90
10883;DHT22;5494;51.796;10.952;2023-04-01T03:08:04;9.90;99.90
10883;DHT22;5494;51.796;10.952;2023-04-01T03:10:33;9.90;99.90
10883;DHT22;5494;51.796;10.952;2023-04-01T03:13:02;9.90;99.90
10883;DHT22;5494;51.796;10.952;2023-04-01T03:15:30;9.80;99.90
10883;DHT22;5494;51.796;10.952;2023-04-01T03:17:58;9.80;99.90
10883;DHT22;5494;51.796;10.952;2023-04-01T03:20:26;10.00;99.90
10883;DHT22;5494;51.796;10.952;2023-04-01T03:22:54;10.00;99.90
10883;DHT22;5494;51.796;10.952;2023-04-01T03:25:22;10.00;99.90
10883;DHT22;5494;51.796;10.952;2023-04-01T03:27:51;10.00;99.90
10883;DHT22;5494;51.796;10.952;2023-04-01T03:30:20;10.00;99.90
10883;DHT22;5494;51.796;10.952;2023-04-01T03:32:50;10.00;99.90
10883;DHT22;5494;51.796;10.952;2023-04-01T03:35:18;10.00;99.90
10883;DHT22;5494;51.796;10.952;2023-04-01T03:37:46;9.90;99.90
10883;DHT22;5494;51.796;10.952;2023-04-01T03:40:14;9.90;99.90
10883;DHT22;5494;51.796;10.952;2023-04-01T03:42:42;9.90;99.90
10883;DHT22;5494;51.796;10.952;2023-04-01T03:45:10;9.90;99.90
10883;DHT22;5494;51.796;10.952;2023-04-01T03:47:40;9.90;99.90
10883;DHT22;5494;51.796;10.952;2023-04-01T03:50:09;9.90;99.90
10883;DHT22;5494;51.796;10.952;2023-04-01T03:52:38;9.90;99.90
10883;DHT22;5494;51.796;10.952;2023-04-01T03:55:07;9.90;99.90
10883;DHT22;5494;51.796;10.952;2023-04-01T03:57:37;9.90;99.90
10883;DHT22;5494;51.796;10.952;2023-04-01T04:00:14;9.90;99.90
10883;DHT22;5494;51.796;10.952;2023-04-01T04:02:47;9.90;99.90
10883;DHT22;5494;51.796;10.952;2023-04-01T04:05:20;9.80;99.90
10883;DHT22;5494;51.796;10.952;2023-04-01T04:07:48;9.90;99.90
10883;DHT22;5494;51.796;10.952;2023-04-01T04:10:16;9.90;99.90
10883;DHT22;5494;51.796;10.952;2023-04-01T04:12:45;9.90;99.90
10883;DHT22;5494;51.796;10.952;2023-04-01T04:15:14;9.90;99.90
10883;DHT22;5494;51.796;10.952;2023-04-01T04:17:42;9.90;99.90
10883;DHT22;5494;51.796;10.952;2023-04-01T04:20:14;9.90;99.90
10883;DHT22;5494;51.796;10.952;2023-04-01T04:22:43;9.80;99.90
10883;DHT22;5494;51.796;10.952;2023-04-01T04:25:11;9.90;99.90
10883;DHT22;5494;51.796;10.952;2023-04-01T04:27:39;9.90;99.90
10883;DHT22;5494;51.796;10.952;2023-04-01T04:30:10;9.90;99.90
10883;DHT22;5494;51.796;10.952;2023-04-01T04:32:39;9.90;99.90
10883;DHT22;5494;51.796;10.952;2023-04-01T04:35:10;10.00;99.90
10883;DHT22;5494;51.796;10.952;2023-04-01T04:37:40;10.00;99.90
10883;DHT22;5494;51.796;10.952;2023-04-01T04:40:08;10.10;99.90
10883;DHT22;5494;51.796;10.952;2023-04-01T04:42:37;10.10;99.90
10883;DHT22;5494;51.796;10.952;2023-04-01T04:45:09;10.00;99.90
10883;DHT22;5494;51.796;10.952;2023-04-01T04:47:45;9.90;99.90
10883;DHT22;5494;51.796;10.952;2023-04-01T04:50:13;10.00;99.90
10883;DHT22;5494;51.796;10.952;2023-04-01T04:52:42;10.00;99.90
10883;DHT22;5494;51.796;10.952;2023-04-01T04:55:10;10.00;99.90
10883;DHT22;5494;51.796;10.952;2023-04-01T04:57:43;9.90;99.90
10883;DHT22;5494;51.796;10.952;2023-04-01T05:00:12;9.90;99.90
10883;DHT22;5494;51.796;10.952;2023-04-01T05:02:57;9.90;99.90
10883;DHT22;5494;51.796;10.952;2023-04-01T05:05:25;10.00;99.90
10883;DHT22;5494;51.796;10.952;2023-04-01T05:07:54;9.90;99.90
10883;DHT22;5494;51.796;10.952;2023-04-01T05:10:22;9.80;99.90
10883;DHT22;5494;51.796;10.952;2023-04-01T05:12:53;9.70;99.90
10883;DHT22;5494;51.796;10.952;2023-04-01T05:15:22;9.70;99.90
10883;DHT22;5494;51.796;10.952;2023-04-01T05:17:50;9.70;99.90
10883;DHT22;5494;51.796;10.952;2023-04-01T05:20:19;9.70;99.90
10883;DHT22;5494;51.796;10.952;2023-04-01T05:22:46;9.80;99.90
10883;DHT22;5494;51.796;10.952;2023-04-01T05:25:16;9.80;99.90
10883;DHT22;5494;51.796;10.952;2023-04-01T05:27:44;9.80;99.90
10883;DHT22;5494;51.796;10.952;2023-04-01T05:30:12;9.80;99.90
10883;DHT22;5494;51.796;10.952;2023-04-01T05:33:02;9.90;99.90
10883;DHT22;5494;51.796;10.952;2023-04-01T05:35:30;9.90;99.90
10883;DHT22;5494;51.796;10.952;2023-04-01T05:37:59;9.90;99.90
10883;DHT22;5494;51.796;10.952;2023-04-01T05:40:28;10.00;99.90
10883;DHT22;5494;51.796;10.952;2023-04-01T05:42:57;10.00;99.90
10883;DHT22;5494;51.796;10.952;2023-04-01T05:45:26;10.00;99.90
10883;DHT22;5494;51.796;10.952;2023-04-01T05:48:17;10.10;99.90
10883;DHT22;5494;51.796;10.952;2023-04-01T05:50:45;10.10;99.90
10883;DHT22;5494;51.796;10.952;2023-04-01T05:53:13;11.00;99.90
10883;DHT22;5494;51.796;10.952;2023-04-01T05:55:44;10.20;99.90
10883;DHT22;5494;51.796;10.952;2023-04-01T05:58:13;10.20;99.90
10883;DHT22;5494;51.796;10.952;2023-04-01T06:00:44;10.20;99.90
10883;DHT22;5494;51.796;10.952;2023-04-01T06:03:15;10.20;99.90
10883;DHT22;5494;51.796;10.952;2023-04-01T06:05:44;10.30;99.90
10883;DHT22;5494;51.796;10.952;2023-04-01T06:08:15;10.20;99.90
10883;DHT22;5494;51.796;10.952;2023-04-01T06:11:01;10.20;99.90
10883;DHT22;5494;51.796;10.952;2023-04-01T06:13:57;10.20;99.90
10883;DHT22;5494;51.796;10.952;2023-04-01T06:16:47;10.30;99.90
10883;DHT22;5494;51.796;10.952;2023-04-01T06:19:32;10.20;99.90
10883;DHT22;5494;51.796;10.952;2023-04-01T06:22:28;10.30;99.90
10883;DHT22;5494;51.796;10.952;2023-04-01T06:25:35;10.30;99.90
10883;DHT22;5494;51.796;10.952;2023-04-01T06:28:42;10.50;99.90
10883;DHT22;5494;51.796;10.952;2023-04-01T06:34:37;10.70;99.90
10883;DHT22;5494;51.796;10.952;2023-04-01T06:37:28;10.80;99.90
10883;DHT22;5494;51.796;10.952;2023-04-01T06:40:31;11.00;99.90
10883;DHT22;5494;51.796;10.952;2023-04-01T06:43:16;11.30;99.90
10883;DHT22;5494;51.796;10.952;2023-04-01T06:46:25;11.40;99.90
10883;DHT22;5494;51.796;10.952;2023-04-01T06:49:33;11.60;99.90
10883;DHT22;5494;51.796;10.952;2023-04-01T06:52:39;11.70;99.90
10883;DHT22;5494;51.796;10.952;2023-04-01T06:55:36;11.80;99.90
10883;DHT22;5494;51.796;10.952;2023-04-01T06:58:21;11.90;99.90
10883;DHT22;5494;51.796;10.952;2023-04-01T07:00:54;12.10;99.90
10883;DHT22;5494;51.796;10.952;2023-04-01T07:03:33;12.10;99.90
10883;DHT22;5494;51.796;10.952;2023-04-01T07:06:13;12.30;99.90
10883;DHT22;5494;51.796;10.952;2023-04-01T07:08:53;12.40;99.90
10883;DHT22;5494;51.796;10.952;2023-04-01T07:11:26;12.60;99.90
10883;DHT22;5494;51.796;10.952;2023-04-01T07:14:30;13.00;99.90
10883;DHT22;5494;51.796;10.952;2023-04-01T07:17:06;13.10;99.90
10883;DHT22;5494;51.796;10.952;2023-04-01T07:19:44;13.30;99.90
10883;DHT22;5494;51.796;10.952;2023-04-01T07:22:21;13.50;99.90
10883;DHT22;5494;51.796;10.952;2023-04-01T07:25:07;13.50;99.90
10883;DHT22;5494;51.796;10.952;2023-04-01T07:27:43;13.60;99.90
10883;DHT22;5494;51.796;10.952;2023-04-01T07:30:15;13.90;99.90
10883;DHT22;5494;51.796;10.952;2023-04-01T07:32:47;14.10;99.90
10883;DHT22;5494;51.796;10.952;2023-04-01T07:35:25;14.20;99.90
10883;DHT22;5494;51.796;10.952;2023-04-01T07:38:08;14.20;99.90
10883;DHT22;5494;51.796;10.952;2023-04-01T07:40:48;14.30;99.90
10883;DHT22;5494;51.796;10.952;2023-04-01T07:43:37;14.20;99.90
10883;DHT22;5494;51.796;10.952;2023-04-01T07:46:33;14.10;99.90
10883;DHT22;5494;51.796;10.952;2023-04-01T07:49:17;14.00;99.90
10883;DHT22;5494;51.796;10.952;2023-04-01T07:51:58;13.70;99.90
10883;DHT22;5494;51.796;10.952;2023-04-01T07:54:40;13.60;99.90
10883;DHT22;5494;51.796;10.952;2023-04-01T07:57:19;13.60;99.90
10883;DHT22;5494;51.796;10.952;2023-04-01T07:59:59;13.50;99.90
10883;DHT22;5494;51.796;10.952;2023-04-01T08:03:07;13.40;99.90
10883;DHT22;5494;51.796;10.952;2023-04-01T08:05:53;13.30;99.90
10883;DHT22;5494;51.796;10.952;2023-04-01T08:08:36;13.50;99.90
10883;DHT22;5494;51.796;10.952;2023-04-01T08:11:47;13.50;99.90
10883;DHT22;5494;51.796;10.952;2023-04-01T08:15:10;13.60;99.90
10883;DHT22;5494;51.796;10.952;2023-04-01T08:18:18;13.80;99.90
10883;DHT22;5494;51.796;10.952;2023-04-01T08:20:58;14.00;99.90
10883;DHT22;5494;51.796;10.952;2023-04-01T08:23:32;14.20;99.90
10883;DHT22;5494;51.796;10.952;2023-04-01T08:26:08;14.20;99.90
10883;DHT22;5494;51.796;10.952;2023-04-01T08:28:45;14.30;99.90
10883;DHT22;5494;51.796;10.952;2023-04-01T08:31:28;14.30;99.90
10883;DHT22;5494;51.796;10.952;2023-04-01T08:34:02;14.20;99.90
10883;DHT22;5494;51.796;10.952;2023-04-01T08:36:37;14.30;99.90
10883;DHT22;5494;51.796;10.952;2023-04-01T08:39:17;14.20;99.90
10883;DHT22;5494;51.796;10.952;2023-04-01T08:42:18;14.40;99.90
10883;DHT22;5494;51.796;10.952;2023-04-01T08:45:18;14.50;99.90
10883;DHT22;5494;51.796;10.952;2023-04-01T08:48:44;14.60;99.90
10883;DHT22;5494;51.796;10.952;2023-04-01T08:58:38;14.70;99.90
10883;DHT22;5494;51.796;10.952;2023-04-01T09:01:49;14.90;99.90
10883;DHT22;5494;51.796;10.952;2023-04-01T09:05:02;15.10;99.90
10883;DHT22;5494;51.796;10.952;2023-04-01T09:07:56;15.20;99.90
10883;DHT22;5494;51.796;10.952;2023-04-01T09:14:08;15.80;99.90
10883;DHT22;5494;51.796;10.952;2023-04-01T09:20:25;15.00;99.90
10883;DHT22;5494;51.796;10.952;2023-04-01T09:23:36;14.50;99.90
10883;DHT22;5494;51.796;10.952;2023-04-01T09:26:31;14.20;99.90
10883;DHT22;5494;51.796;10.952;2023-04-01T09:29:22;14.00;99.90
10883;DHT22;5494;51.796;10.952;2023-04-01T09:32:16;13.80;99.90
10883;DHT22;5494;51.796;10.952;2023-04-01T09:35:21;13.70;99.90
10883;DHT22;5494;51.796;10.952;2023-04-01T09:38:06;13.60;99.90
10883;DHT22;5494;51.796;10.952;2023-04-01T09:40:56;13.70;99.90
10883;DHT22;5494;51.796;10.952;2023-04-01T09:44:01;13.90;99.90
10883;DHT22;5494;51.796;10.952;2023-04-01T09:46:55;13.80;99.90
10883;DHT22;5494;51.796;10.952;2023-04-01T09:52:46;14.10;99.90
10883;DHT22;5494;51.796;10.952;2023-04-01T09:55:47;14.40;99.90
10883;DHT22;5494;51.796;10.952;2023-04-01T09:59:29;14.80;99.90
10883;DHT22;5494;51.796;10.952;2023-04-01T10:02:50;15.10;99.90
10883;DHT22;5494;51.796;10.952;2023-04-01T10:06:05;15.30;99.90
10883;DHT22;5494;51.796;10.952;2023-04-01T10:09:30;15.20;99.90
10883;DHT22;5494;51.796;10.952;2023-04-01T10:12:47;15.30;99.90
10883;DHT22;5494;51.796;10.952;2023-04-01T10:18:56;15.30;99.90
10883;DHT22;5494;51.796;10.952;2023-04-01T10:21:49;15.40;99.90
10883;DHT22;5494;51.796;10.952;2023-04-01T10:24:49;15.10;99.90
10883;DHT22;5494;51.796;10.952;2023-04-01T10:28:04;14.80;99.90
10883;DHT22;5494;51.796;10.952;2023-04-01T10:31:38;14.70;99.90
10883;DHT22;5494;51.796;10.952;2023-04-01T10:34:54;15.10;99.90
10883;DHT22;5494;51.796;10.952;2023-04-01T10:38:25;15.50;99.90
10883;DHT22;5494;51.796;10.952;2023-04-01T10:41:53;15.70;99.90
10883;DHT22;5494;51.796;10.952;2023-04-01T10:45:33;15.90;99.90
10883;DHT22;5494;51.796;10.952;2023-04-01T10:51:47;15.50;99.90
10883;DHT22;5494;51.796;10.952;2023-04-01T10:55:32;15.50;99.90
10883;DHT22;5494;51.796;10.952;2023-04-01T10:58:45;15.60;99.90
10883;DHT22;5494;51.796;10.952;2023-04-01T11:05:52;15.30;99.90
10883;DHT22;5494;51.796;10.952;2023-04-01T11:09:12;15.10;99.90
10883;DHT22;5494;51.796;10.952;2023-04-01T11:15:41;15.20;99.90
10883;DHT22;5494;51.796;10.952;2023-04-01T11:19:14;15.20;99.90
10883;DHT22;5494;51.796;10.952;2023-04-01T11:22:24;15.40;99.90
10883;DHT22;5494;51.796;10.952;2023-04-01T11:25:20;15.10;99.90
10883;DHT22;5494;51.796;10.952;2023-04-01T11:28:44;14.80;99.90
10883;DHT22;5494;51.796;10.952;2023-04-01T11:31:43;14.80;99.90
10883;DHT22;5494;51.796;10.952;2023-04-01T11:34:37;14.60;99.90
10883;DHT22;5494;51.796;10.952;2023-04-01T11:37:28;14.70;99.90
10883;DHT22;5494;51.796;10.952;2023-04-01T11:40:27;14.90;99.90
10883;DHT22;5494;51.796;10.952;2023-04-01T11:43:36;15.20;99.90
10883;DHT22;5494;51.796;10.952;2023-04-01T11:46:48;15.60;99.90
10883;DHT22;5494;51.796;10.952;2023-04-01T11:49:33;15.80;99.90
10883;DHT22;5494;51.796;10.952;2023-04-01T11:52:37;15.70;99.90
10883;DHT22;5494;51.796;10.952;2023-04-01T11:55:28;15.60;99.90
10883;DHT22;5494;51.796;10.952;2023-04-01T12:01:36;15.50;99.90
10883;DHT22;5494;51.796;10.952;2023-04-01T12:04:36;15.50;99.90
10883;DHT22;5494;51.796;10.952;2023-04-01T12:07:22;15.50;99.90
10883;DHT22;5494;51.796;10.952;2023-04-01T12:10:12;15.50;99.90
10883;DHT22;5494;51.796;10.952;2023-04-01T12:12:52;15.50;99.90
10883;DHT22;5494;51.796;10.952;2023-04-01T12:15:35;15.50;99.90
10883;DHT22;5494;51.796;10.952;2023-04-01T12:18:20;15.40;99.90
10883;DHT22;5494;51.796;10.952;2023-04-01T12:21:06;15.40;99.90
10883;DHT22;5494;51.796;10.952;2023-04-01T12:23:59;15.50;99.90
10883;DHT22;5494;51.796;10.952;2023-04-01T12:26:52;15.40;99.90
10883;DHT22;5494;51.796;10.952;2023-04-01T12:29:47;15.50;99.90
10883;DHT22;5494;51.796;10.952;2023-04-01T12:32:31;15.40;99.90
10883;DHT22;5494;51.796;10.952;2023-04-01T12:35:17;15.30;99.90
10883;DHT22;5494;51.796;10.952;2023-04-01T12:38:08;15.10;99.90
10883;DHT22;5494;51.796;10.952;2023-04-01T12:41:05;15.10;99.90
10883;DHT22;5494;51.796;10.952;2023-04-01T12:44:04;14.90;99.90
10883;DHT22;5494;51.796;10.952;2023-04-01T12:50:09;14.90;99.90
10883;DHT22;5494;51.796;10.952;2023-04-01T12:53:01;14.90;99.90
10883;DHT22;5494;51.796;10.952;2023-04-01T12:55:45;15.00;99.90
10883;DHT22;5494;51.796;10.952;2023-04-01T13:01:53;15.10;99.90
10883;DHT22;5494;51.796;10.952;2023-04-01T13:05:01;15.30;99.90
10883;DHT22;5494;51.796;10.952;2023-04-01T13:07:56;15.50;99.90
10883;DHT22;5494;51.796;10.952;2023-04-01T13:10:42;15.40;99.90
10883;DHT22;5494;51.796;10.952;2023-04-01T13:13:37;15.40;99.90
10883;DHT22;5494;51.796;10.952;2023-04-01T13:16:25;15.40;99.90
10883;DHT22;5494;51.796;10.952;2023-04-01T13:19:01;15.50;99.90
10883;DHT22;5494;51.796;10.952;2023-04-01T13:21:43;15.60;99.90
10883;DHT22;5494;51.796;10.952;2023-04-01T13:27:20;15.80;99.90
10883;DHT22;5494;51.796;10.952;2023-04-01T13:30:02;15.70;99.90
10883;DHT22;5494;51.796;10.952;2023-04-01T13:32:46;15.50;99.90
10883;DHT22;5494;51.796;10.952;2023-04-01T13:35:31;15.10;99.90
10883;DHT22;5494;51.796;10.952;2023-04-01T13:38:18;14.80;99.90
10883;DHT22;5494;51.796;10.952;2023-04-01T13:41:04;14.50;99.90
10883;DHT22;5494;51.796;10.952;2023-04-01T13:43:41;14.20;99.90
10883;DHT22;5494;51.796;10.952;2023-04-01T13:46:39;14.00;99.90
10883;DHT22;5494;51.796;10.952;2023-04-01T13:52:29;13.70;99.90
10883;DHT22;5494;51.796;10.952;2023-04-01T13:55:20;13.30;99.90
10883;DHT22;5494;51.796;10.952;2023-04-01T13:58:19;13.10;99.90
10883;DHT22;5494;51.796;10.952;2023-04-01T14:01:07;13.00;99.90
10883;DHT22;5494;51.796;10.952;2023-04-01T14:03:49;12.90;99.90
10883;DHT22;5494;51.796;10.952;2023-04-01T14:06:36;12.80;99.90
10883;DHT22;5494;51.796;10.952;2023-04-01T14:09:36;12.90;99.90
10883;DHT22;5494;51.796;10.952;2023-04-01T14:12:29;12.80;99.90
10883;DHT22;5494;51.796;10.952;2023-04-01T14:15:24;12.70;99.90
10883;DHT22;5494;51.796;10.952;2023-04-01T14:18:24;12.60;99.90
10883;DHT22;5494;51.796;10.952;2023-04-01T14:21:26;12.30;99.90
10883;DHT22;5494;51.796;10.952;2023-04-01T14:24:31;12.20;99.90
10883;DHT22;5494;51.796;10.952;2023-04-01T14:30:35;11.80;99.90
10883;DHT22;5494;51.796;10.952;2023-04-01T14:33:23;11.70;99.90
10883;DHT22;5494;51.796;10.952;2023-04-01T14:36:12;11.70;99.90
10883;DHT22;5494;51.796;10.952;2023-04-01T14:39:06;11.40;99.90
10883;DHT22;5494;51.796;10.952;2023-04-01T14:41:58;11.20;99.90
10883;DHT22;5494;51.796;10.952;2023-04-01T14:45:06;11.10;99.90
10883;DHT22;5494;51.796;10.952;2023-04-01T14:47:58;10.90;99.90
10883;DHT22;5494;51.796;10.952;2023-04-01T14:50:41;10.80;99.90
10883;DHT22;5494;51.796;10.952;2023-04-01T14:53:23;10.80;99.90
10883;DHT22;5494;51.796;10.952;2023-04-01T14:55:56;10.80;99.90
10883;DHT22;5494;51.796;10.952;2023-04-01T14:58:43;10.80;99.90
10883;DHT22;5494;51.796;10.952;2023-04-01T15:01:33;10.80;99.90
10883;DHT22;5494;51.796;10.952;2023-04-01T15:07:52;10.90;99.90
10883;DHT22;5494;51.796;10.952;2023-04-01T15:10:51;10.80;99.90
10883;DHT22;5494;51.796;10.952;2023-04-01T15:13:43;10.90;99.90
10883;DHT22;5494;51.796;10.952;2023-04-01T15:16:27;10.90;99.90
10883;DHT22;5494;51.796;10.952;2023-04-01T15:19:12;10.80;99.90
10883;DHT22;5494;51.796;10.952;2023-04-01T15:22:03;10.80;99.90
10883;DHT22;5494;51.796;10.952;2023-04-01T15:25:00;10.70;99.90
10883;DHT22;5494;51.796;10.952;2023-04-01T15:27:48;10.60;99.90
10883;DHT22;5494;51.796;10.952;2023-04-01T15:30:33;10.60;99.90
10883;DHT22;5494;51.796;10.952;2023-04-01T15:33:26;10.60;99.90
10883;DHT22;5494;51.796;10.952;2023-04-01T15:36:15;10.60;99.90
10883;DHT22;5494;51.796;10.952;2023-04-01T15:39:02;10.40;99.90
10883;DHT22;5494;51.796;10.952;2023-04-01T15:41:44;10.30;99.90
10883;DHT22;5494;51.796;10.952;2023-04-01T15:44:46;10.20;99.90
10883;DHT22;5494;51.796;10.952;2023-04-01T15:47:36;10.20;99.90
10883;DHT22;5494;51.796;10.952;2023-04-01T15:56:30;10.10;99.90
10883;DHT22;5494;51.796;10.952;2023-04-01T15:59:20;10.00;99.90
10883;DHT22;5494;51.796;10.952;2023-04-01T16:02:08;10.00;99.90
10883;DHT22;5494;51.796;10.952;2023-04-01T16:04:54;9.90;99.90
10883;DHT22;5494;51.796;10.952;2023-04-01T16:07:41;9.90;99.90
10883;DHT22;5494;51.796;10.952;2023-04-01T16:10:28;9.80;99.90
10883;DHT22;5494;51.796;10.952;2023-04-01T16:13:25;9.80;99.90
10883;DHT22;5494;51.796;10.952;2023-04-01T16:16:09;9.90;99.90
10883;DHT22;5494;51.796;10.952;2023-04-01T16:18:59;9.90;99.90
10883;DHT22;5494;51.796;10.952;2023-04-01T16:21:52;9.80;99.90
10883;DHT22;5494;51.796;10.952;2023-04-01T16:24:33;9.80;99.90
10883;DHT22;5494;51.796;10.952;2023-04-01T16:27:10;9.80;99.90
10883;DHT22;5494;51.796;10.952;2023-04-01T16:29:47;9.80;99.90
10883;DHT22;5494;51.796;10.952;2023-04-01T16:32:31;9.70;99.90
10883;DHT22;5494;51.796;10.952;2023-04-01T16:35:28;9.70;99.90
10883;DHT22;5494;51.796;10.952;2023-04-01T16:38:11;9.60;99.90
10883;DHT22;5494;51.796;10.952;2023-04-01T16:40:49;9.60;99.90
10883;DHT22;5494;51.796;10.952;2023-04-01T16:43:28;9.60;99.90
10883;DHT22;5494;51.796;10.952;2023-04-01T16:46:33;9.60;99.90
10883;DHT22;5494;51.796;10.952;2023-04-01T16:49:25;9.70;99.90
10883;DHT22;5494;51.796;10.952;2023-04-01T16:52:11;9.70;99.90
10883;DHT22;5494;51.796;10.952;2023-04-01T16:54:47;9.70;99.90
10883;DHT22;5494;51.796;10.952;2023-04-01T16:57:26;9.70;99.90
10883;DHT22;5494;51.796;10.952;2023-04-01T17:00:03;9.70;99.90
10883;DHT22;5494;51.796;10.952;2023-04-01T17:02:49;9.70;99.90
10883;DHT22;5494;51.796;10.952;2023-04-01T17:05:39;9.70;99.90
10883;DHT22;5494;51.796;10.952;2023-04-01T17:08:21;9.60;99.90
10883;DHT22;5494;51.796;10.952;2023-04-01T17:11:06;9.60;99.90
10883;DHT22;5494;51.796;10.952;2023-04-01T17:13:46;9.50;99.90
10883;DHT22;5494;51.796;10.952;2023-04-01T17:16:38;9.20;99.90
10883;DHT22;5494;51.796;10.952;2023-04-01T17:19:28;9.10;99.90
10883;DHT22;5494;51.796;10.952;2023-04-01T17:22:22;8.90;99.90
10883;DHT22;5494;51.796;10.952;2023-04-01T17:25:17;8.80;99.90
10883;DHT22;5494;51.796;10.952;2023-04-01T17:27:59;8.60;99.90
10883;DHT22;5494;51.796;10.952;2023-04-01T17:30:39;8.50;99.90
10883;DHT22;5494;51.796;10.952;2023-04-01T17:33:35;8.40;99.90
10883;DHT22;5494;51.796;10.952;2023-04-01T17:36:33;8.30;99.90
10883;DHT22;5494;51.796;10.952;2023-04-01T17:39:23;8.20;99.90
10883;DHT22;5494;51.796;10.952;2023-04-01T17:42:15;8.10;99.90
10883;DHT22;5494;51.796;10.952;2023-04-01T17:44:53;8.10;99.90
10883;DHT22;5494;51.796;10.952;2023-04-01T17:47:44;8.00;99.90
10883;DHT22;5494;51.796;10.952;2023-04-01T17:50:44;8.00;99.90
10883;DHT22;5494;51.796;10.952;2023-04-01T17:53:31;8.00;99.90
10883;DHT22;5494;51.796;10.952;2023-04-01T17:56:20;7.90;99.90
10883;DHT22;5494;51.796;10.952;2023-04-01T17:59:09;7.90;99.90
10883;DHT22;5494;51.796;10.952;2023-04-01T18:01:56;7.80;99.90
10883;DHT22;5494;51.796;10.952;2023-04-01T18:08:11;7.80;99.90
10883;DHT22;5494;51.796;10.952;2023-04-01T18:10:53;7.70;99.90
10883;DHT22;5494;51.796;10.952;2023-04-01T18:13:50;7.70;99.90
10883;DHT22;5494;51.796;10.952;2023-04-01T18:16:34;7.60;99.90
10883;DHT22;5494;51.796;10.952;2023-04-01T18:19:19;7.50;99.90
10883;DHT22;5494;51.796;10.952;2023-04-01T18:22:02;7.60;99.90
10883;DHT22;5494;51.796;10.952;2023-04-01T18:24:42;7.50;99.90
10883;DHT22;5494;51.796;10.952;2023-04-01T18:27:17;7.50;99.90
10883;DHT22;5494;51.796;10.952;2023-04-01T18:29:52;7.50;99.90